sensor_id;sensor_type;location;lat;lon;timestamp;P1;durP1;ratioP1;P2;durP2;ratioP2
57389;SDS011;43217;52.694;6.214;2022-10-31T00:00:20;17.10;;;14.00;;
57389;SDS011;43217;52.694;6.214;2022-10-31T00:02:45;17.17;;;13.18;;
57389;SDS011;43217;52.694;6.214;2022-10-31T00:05:11;19.05;;;13.85;;
57389;SDS011;43217;52.694;6.214;2022-10-31T00:07:37;19.38;;;13.55;;
57389;SDS011;43217;52.694;6.214;2022-10-31T00:10:02;17.58;;;14.32;;
57389;SDS011;43217;52.694;6.214;2022-10-31T00:12:29;20.13;;;14.30;;
57389;SDS011;43217;52.694;6.214;2022-10-31T00:14:54;22.10;;;16.73;;
57389;SDS011;43217;52.694;6.214;2022-10-31T00:17:20;21.33;;;15.23;;
57389;SDS011;43217;52.694;6.214;2022-10-31T00:19:45;19.15;;;15.90;;
57389;SDS011;43217;52.694;6.214;2022-10-31T00:22:11;19.02;;;14.63;;
57389;SDS011;43217;52.694;6.214;2022-10-31T00:24:37;17.77;;;15.30;;
57389;SDS011;43217;52.694;6.214;2022-10-31T00:27:02;18.77;;;14.93;;
57389;SDS011;43217;52.694;6.214;2022-10-31T00:29:28;19.52;;;15.80;;
57389;SDS011;43217;52.694;6.214;2022-10-31T00:31:53;19.17;;;14.52;;
57389;SDS011;43217;52.694;6.214;2022-10-31T00:34:19;19.27;;;13.75;;
57389;SDS011;43217;52.694;6.214;2022-10-31T00:36:45;17.77;;;13.95;;
57389;SDS011;43217;52.694;6.214;2022-10-31T00:39:10;18.92;;;13.27;;
57389;SDS011;43217;52.694;6.214;2022-10-31T00:41:36;19.45;;;14.23;;
57389;SDS011;43217;52.694;6.214;2022-10-31T00:44:01;20.20;;;13.48;;
57389;SDS011;43217;52.694;6.214;2022-10-31T00:46:27;19.50;;;13.65;;
57389;SDS011;43217;52.694;6.214;2022-10-31T00:48:53;16.35;;;13.27;;
57389;SDS011;43217;52.694;6.214;2022-10-31T00:51:18;14.80;;;12.80;;
57389;SDS011;43217;52.694;6.214;2022-10-31T00:53:44;14.82;;;12.98;;
57389;SDS011;43217;52.694;6.214;2022-10-31T00:56:10;15.88;;;12.57;;
57389;SDS011;43217;52.694;6.214;2022-10-31T00:58:35;15.38;;;12.48;;
57389;SDS011;43217;52.694;6.214;2022-10-31T01:01:01;14.10;;;12.35;;
57389;SDS011;43217;52.694;6.214;2022-10-31T01:03:29;14.55;;;12.05;;
57389;SDS011;43217;52.694;6.214;2022-10-31T01:06:06;17.42;;;12.93;;
57389;SDS011;43217;52.694;6.214;2022-10-31T01:08:34;14.07;;;12.60;;
57389;SDS011;43217;52.694;6.214;2022-10-31T01:11:02;16.30;;;12.25;;
57389;SDS011;43217;52.694;6.214;2022-10-31T01:13:38;16.35;;;12.02;;
57389;SDS011;43217;52.694;6.214;2022-10-31T01:16:04;15.32;;;11.40;;
57389;SDS011;43217;52.694;6.214;2022-10-31T01:18:31;15.75;;;11.90;;
57389;SDS011;43217;52.694;6.214;2022-10-31T01:21:02;13.65;;;11.27;;
57389;SDS011;43217;52.694;6.214;2022-10-31T01:23:30;15.52;;;12.23;;
57389;SDS011;43217;52.694;6.214;2022-10-31T01:26:00;15.50;;;11.50;;
57389;SDS011;43217;52.694;6.214;2022-10-31T01:31:04;13.57;;;11.90;;
57389;SDS011;43217;52.694;6.214;2022-10-31T01:33:31;12.98;;;11.40;;
57389;SDS011;43217;52.694;6.214;2022-10-31T01:35:57;13.88;;;11.05;;
57389;SDS011;43217;52.694;6.214;2022-10-31T01:38:23;16.67;;;11.98;;
57389;SDS011;43217;52.694;6.214;2022-10-31T01:40:49;14.23;;;10.95;;
57389;SDS011;43217;52.694;6.214;2022-10-31T01:43:15;13.60;;;10.45;;
57389;SDS011;43217;52.694;6.214;2022-10-31T01:45:41;11.90;;;10.43;;
57389;SDS011;43217;52.694;6.214;2022-10-31T01:48:15;13.43;;;10.50;;
57389;SDS011;43217;52.694;6.214;2022-10-31T01:50:43;15.75;;;11.18;;
57389;SDS011;43217;52.694;6.214;2022-10-31T01:53:12;11.40;;;10.18;;
57389;SDS011;43217;52.694;6.214;2022-10-31T01:55:41;11.98;;;10.23;;
57389;SDS011;43217;52.694;6.214;2022-10-31T01:58:20;13.88;;;11.23;;
57389;SDS011;43217;52.694;6.214;2022-10-31T02:00:51;13.88;;;11.00;;
57389;SDS011;43217;52.694;6.214;2022-10-31T02:03:20;12.48;;;9.65;;
57389;SDS011;43217;52.694;6.214;2022-10-31T02:05:47;13.18;;;10.82;;
57389;SDS011;43217;52.694;6.214;2022-10-31T02:08:15;13.63;;;10.75;;
57389;SDS011;43217;52.694;6.214;2022-10-31T02:10:48;15.13;;;11.60;;
57389;SDS011;43217;52.694;6.214;2022-10-31T02:13:14;12.40;;;10.20;;
57389;SDS011;43217;52.694;6.214;2022-10-31T02:15:41;11.67;;;9.80;;
57389;SDS011;43217;52.694;6.214;2022-10-31T02:18:10;13.00;;;10.48;;
57389;SDS011;43217;52.694;6.214;2022-10-31T02:26:41;12.90;;;10.20;;
57389;SDS011;43217;52.694;6.214;2022-10-31T02:29:14;13.13;;;10.00;;
57389;SDS011;43217;52.694;6.214;2022-10-31T02:43:26;11.90;;;10.25;;
57389;SDS011;43217;52.694;6.214;2022-10-31T02:48:40;11.75;;;10.55;;
57389;SDS011;43217;52.694;6.214;2022-10-31T02:51:08;12.80;;;10.63;;
57389;SDS011;43217;52.694;6.214;2022-10-31T02:53:36;12.77;;;10.43;;
57389;SDS011;43217;52.694;6.214;2022-10-31T02:56:13;12.98;;;10.88;;
57389;SDS011;43217;52.694;6.214;2022-10-31T03:01:22;13.23;;;10.52;;
57389;SDS011;43217;52.694;6.214;2022-10-31T03:04:14;12.48;;;10.32;;
57389;SDS011;43217;52.694;6.214;2022-10-31T03:09:36;10.98;;;9.85;;
57389;SDS011;43217;52.694;6.214;2022-10-31T03:20:14;12.85;;;10.18;;
57389;SDS011;43217;52.694;6.214;2022-10-31T03:22:45;14.05;;;11.30;;
57389;SDS011;43217;52.694;6.214;2022-10-31T03:25:11;12.88;;;11.10;;
57389;SDS011;43217;52.694;6.214;2022-10-31T03:27:38;11.90;;;10.70;;
57389;SDS011;43217;52.694;6.214;2022-10-31T03:30:06;11.73;;;10.52;;
57389;SDS011;43217;52.694;6.214;2022-10-31T03:32:49;11.25;;;10.05;;
57389;SDS011;43217;52.694;6.214;2022-10-31T03:35:18;10.80;;;9.70;;
57389;SDS011;43217;52.694;6.214;2022-10-31T03:37:47;10.73;;;9.52;;
57389;SDS011;43217;52.694;6.214;2022-10-31T03:40:14;11.00;;;9.30;;
57389;SDS011;43217;52.694;6.214;2022-10-31T03:42:43;10.30;;;9.38;;
57389;SDS011;43217;52.694;6.214;2022-10-31T03:45:17;12.20;;;9.70;;
57389;SDS011;43217;52.694;6.214;2022-10-31T03:47:49;10.57;;;9.43;;
57389;SDS011;43217;52.694;6.214;2022-10-31T03:50:16;13.10;;;10.83;;
57389;SDS011;43217;52.694;6.214;2022-10-31T03:52:45;10.32;;;9.27;;
57389;SDS011;43217;52.694;6.214;2022-10-31T03:55:22;18.20;;;11.77;;
57389;SDS011;43217;52.694;6.214;2022-10-31T03:57:58;12.30;;;11.05;;
57389;SDS011;43217;52.694;6.214;2022-10-31T04:00:28;11.55;;;10.32;;
57389;SDS011;43217;52.694;6.214;2022-10-31T04:03:03;11.63;;;9.90;;
57389;SDS011;43217;52.694;6.214;2022-10-31T04:05:42;10.73;;;9.57;;
57389;SDS011;43217;52.694;6.214;2022-10-31T04:08:11;11.00;;;9.77;;
57389;SDS011;43217;52.694;6.214;2022-10-31T04:10:40;13.80;;;10.77;;
57389;SDS011;43217;52.694;6.214;2022-10-31T04:13:13;13.75;;;11.00;;
57389;SDS011;43217;52.694;6.214;2022-10-31T04:15:42;11.52;;;10.30;;
57389;SDS011;43217;52.694;6.214;2022-10-31T04:20:36;12.00;;;10.52;;
57389;SDS011;43217;52.694;6.214;2022-10-31T04:23:03;13.23;;;11.00;;
57389;SDS011;43217;52.694;6.214;2022-10-31T04:25:30;12.73;;;11.02;;
57389;SDS011;43217;52.694;6.214;2022-10-31T04:27:55;12.75;;;11.07;;
57389;SDS011;43217;52.694;6.214;2022-10-31T04:30:21;12.60;;;10.80;;
57389;SDS011;43217;52.694;6.214;2022-10-31T04:32:47;12.30;;;10.30;;
57389;SDS011;43217;52.694;6.214;2022-10-31T04:35:13;12.40;;;11.10;;
57389;SDS011;43217;52.694;6.214;2022-10-31T04:37:38;13.77;;;10.38;;
57389;SDS011;43217;52.694;6.214;2022-10-31T04:40:05;13.48;;;10.73;;
57389;SDS011;43217;52.694;6.214;2022-10-31T04:42:31;15.07;;;10.77;;
57389;SDS011;43217;52.694;6.214;2022-10-31T04:44:57;11.38;;;9.98;;
57389;SDS011;43217;52.694;6.214;2022-10-31T04:47:22;11.73;;;10.50;;
57389;SDS011;43217;52.694;6.214;2022-10-31T04:49:48;14.85;;;10.65;;
57389;SDS011;43217;52.694;6.214;2022-10-31T04:52:13;12.32;;;10.52;;
57389;SDS011;43217;52.694;6.214;2022-10-31T04:54:39;11.02;;;9.82;;
57389;SDS011;43217;52.694;6.214;2022-10-31T04:57:04;12.38;;;10.10;;
57389;SDS011;43217;52.694;6.214;2022-10-31T04:59:30;12.82;;;11.00;;
57389;SDS011;43217;52.694;6.214;2022-10-31T05:01:56;13.85;;;11.10;;
57389;SDS011;43217;52.694;6.214;2022-10-31T05:04:21;15.00;;;12.38;;
57389;SDS011;43217;52.694;6.214;2022-10-31T05:06:47;17.00;;;12.70;;
57389;SDS011;43217;52.694;6.214;2022-10-31T05:09:12;16.48;;;13.77;;
57389;SDS011;43217;52.694;6.214;2022-10-31T05:11:38;16.05;;;13.55;;
57389;SDS011;43217;52.694;6.214;2022-10-31T05:14:04;16.27;;;13.85;;
57389;SDS011;43217;52.694;6.214;2022-10-31T05:16:29;15.57;;;13.43;;
57389;SDS011;43217;52.694;6.214;2022-10-31T05:18:55;15.63;;;13.85;;
57389;SDS011;43217;52.694;6.214;2022-10-31T05:21:20;20.23;;;15.38;;
57389;SDS011;43217;52.694;6.214;2022-10-31T05:23:46;16.65;;;14.95;;
57389;SDS011;43217;52.694;6.214;2022-10-31T05:26:12;17.05;;;14.95;;
57389;SDS011;43217;52.694;6.214;2022-10-31T05:28:37;16.90;;;14.85;;
57389;SDS011;43217;52.694;6.214;2022-10-31T05:31:03;18.98;;;15.90;;
57389;SDS011;43217;52.694;6.214;2022-10-31T05:33:29;17.27;;;15.43;;
57389;SDS011;43217;52.694;6.214;2022-10-31T05:35:54;16.70;;;14.90;;
57389;SDS011;43217;52.694;6.214;2022-10-31T05:38:20;17.90;;;13.98;;
57389;SDS011;43217;52.694;6.214;2022-10-31T05:40:45;18.88;;;16.83;;
57389;SDS011;43217;52.694;6.214;2022-10-31T05:43:11;16.10;;;14.43;;
57389;SDS011;43217;52.694;6.214;2022-10-31T05:45:36;17.60;;;15.27;;
57389;SDS011;43217;52.694;6.214;2022-10-31T05:48:02;17.40;;;15.25;;
57389;SDS011;43217;52.694;6.214;2022-10-31T05:50:28;20.77;;;17.10;;
57389;SDS011;43217;52.694;6.214;2022-10-31T05:52:56;21.08;;;17.55;;
57389;SDS011;43217;52.694;6.214;2022-10-31T05:55:26;20.15;;;16.75;;
57389;SDS011;43217;52.694;6.214;2022-10-31T05:57:53;17.75;;;15.98;;
57389;SDS011;43217;52.694;6.214;2022-10-31T06:00:20;18.02;;;15.75;;
57389;SDS011;43217;52.694;6.214;2022-10-31T06:02:46;19.83;;;16.92;;
57389;SDS011;43217;52.694;6.214;2022-10-31T06:05:12;21.58;;;16.77;;
57389;SDS011;43217;52.694;6.214;2022-10-31T06:07:38;18.33;;;15.07;;
57389;SDS011;43217;52.694;6.214;2022-10-31T06:10:04;18.70;;;16.65;;
57389;SDS011;43217;52.694;6.214;2022-10-31T06:14:57;17.23;;;15.52;;
57389;SDS011;43217;52.694;6.214;2022-10-31T06:17:23;19.77;;;16.98;;
57389;SDS011;43217;52.694;6.214;2022-10-31T06:19:48;20.42;;;16.83;;
57389;SDS011;43217;52.694;6.214;2022-10-31T06:22:14;19.00;;;16.33;;
57389;SDS011;43217;52.694;6.214;2022-10-31T06:24:39;19.83;;;16.55;;
57389;SDS011;43217;52.694;6.214;2022-10-31T06:27:05;21.65;;;18.15;;
57389;SDS011;43217;52.694;6.214;2022-10-31T06:29:31;18.80;;;16.80;;
57389;SDS011;43217;52.694;6.214;2022-10-31T06:31:57;30.20;;;16.83;;
57389;SDS011;43217;52.694;6.214;2022-10-31T06:34:22;18.30;;;15.98;;
57389;SDS011;43217;52.694;6.214;2022-10-31T06:36:48;19.58;;;17.52;;
57389;SDS011;43217;52.694;6.214;2022-10-31T06:39:14;17.58;;;15.65;;
57389;SDS011;43217;52.694;6.214;2022-10-31T06:41:39;17.77;;;15.63;;
57389;SDS011;43217;52.694;6.214;2022-10-31T06:44:06;16.92;;;15.07;;
57389;SDS011;43217;52.694;6.214;2022-10-31T06:46:32;17.17;;;15.27;;
57389;SDS011;43217;52.694;6.214;2022-10-31T06:48:58;18.08;;;15.60;;
57389;SDS011;43217;52.694;6.214;2022-10-31T06:51:23;17.85;;;15.30;;
57389;SDS011;43217;52.694;6.214;2022-10-31T06:53:49;17.85;;;14.63;;
57389;SDS011;43217;52.694;6.214;2022-10-31T06:56:15;17.10;;;15.30;;
57389;SDS011;43217;52.694;6.214;2022-10-31T06:58:40;16.90;;;14.88;;
57389;SDS011;43217;52.694;6.214;2022-10-31T07:01:06;14.18;;;12.75;;
57389;SDS011;43217;52.694;6.214;2022-10-31T07:03:32;16.27;;;14.57;;
57389;SDS011;43217;52.694;6.214;2022-10-31T07:05:57;15.88;;;14.27;;
57389;SDS011;43217;52.694;6.214;2022-10-31T07:08:23;18.85;;;15.00;;
57389;SDS011;43217;52.694;6.214;2022-10-31T07:10:51;17.38;;;15.45;;
57389;SDS011;43217;52.694;6.214;2022-10-31T07:13:18;18.23;;;15.95;;
57389;SDS011;43217;52.694;6.214;2022-10-31T07:15:46;17.27;;;15.48;;
57389;SDS011;43217;52.694;6.214;2022-10-31T07:18:12;18.30;;;16.00;;
57389;SDS011;43217;52.694;6.214;2022-10-31T07:20:37;23.60;;;18.27;;
57389;SDS011;43217;52.694;6.214;2022-10-31T07:23:03;22.52;;;20.08;;
57389;SDS011;43217;52.694;6.214;2022-10-31T07:25:29;26.73;;;21.17;;
57389;SDS011;43217;52.694;6.214;2022-10-31T07:27:55;27.65;;;20.85;;
57389;SDS011;43217;52.694;6.214;2022-10-31T07:30:20;28.55;;;21.55;;
57389;SDS011;43217;52.694;6.214;2022-10-31T07:32:47;30.05;;;21.52;;
57389;SDS011;43217;52.694;6.214;2022-10-31T07:35:14;25.35;;;21.30;;
57389;SDS011;43217;52.694;6.214;2022-10-31T07:40:07;25.88;;;21.13;;
57389;SDS011;43217;52.694;6.214;2022-10-31T07:45:07;30.35;;;22.50;;
57389;SDS011;43217;52.694;6.214;2022-10-31T07:47:38;27.45;;;22.58;;
57389;SDS011;43217;52.694;6.214;2022-10-31T07:50:06;28.35;;;23.33;;
57389;SDS011;43217;52.694;6.214;2022-10-31T07:52:33;30.65;;;24.80;;
57389;SDS011;43217;52.694;6.214;2022-10-31T07:54:59;32.55;;;24.55;;
57389;SDS011;43217;52.694;6.214;2022-10-31T07:57:25;30.73;;;24.98;;
57389;SDS011;43217;52.694;6.214;2022-10-31T07:59:50;33.03;;;26.45;;
57389;SDS011;43217;52.694;6.214;2022-10-31T08:02:16;27.85;;;24.85;;
57389;SDS011;43217;52.694;6.214;2022-10-31T08:04:41;33.60;;;27.95;;
57389;SDS011;43217;52.694;6.214;2022-10-31T08:07:07;29.40;;;25.48;;
57389;SDS011;43217;52.694;6.214;2022-10-31T08:09:33;35.25;;;26.90;;
57389;SDS011;43217;52.694;6.214;2022-10-31T08:11:58;34.60;;;27.17;;
57389;SDS011;43217;52.694;6.214;2022-10-31T08:14:25;31.45;;;26.10;;
57389;SDS011;43217;52.694;6.214;2022-10-31T08:16:51;32.70;;;26.92;;
57389;SDS011;43217;52.694;6.214;2022-10-31T08:19:17;36.10;;;28.90;;
57389;SDS011;43217;52.694;6.214;2022-10-31T08:21:43;31.40;;;26.42;;
57389;SDS011;43217;52.694;6.214;2022-10-31T08:24:09;31.00;;;27.42;;
57389;SDS011;43217;52.694;6.214;2022-10-31T08:26:34;33.95;;;28.83;;
57389;SDS011;43217;52.694;6.214;2022-10-31T08:29:00;37.63;;;30.05;;
57389;SDS011;43217;52.694;6.214;2022-10-31T08:31:26;37.40;;;31.30;;
57389;SDS011;43217;52.694;6.214;2022-10-31T08:33:53;38.20;;;31.55;;
57389;SDS011;43217;52.694;6.214;2022-10-31T08:36:20;43.53;;;33.42;;
57389;SDS011;43217;52.694;6.214;2022-10-31T08:38:46;43.28;;;33.97;;
57389;SDS011;43217;52.694;6.214;2022-10-31T08:41:13;44.10;;;33.38;;
57389;SDS011;43217;52.694;6.214;2022-10-31T08:43:39;42.28;;;33.60;;
57389;SDS011;43217;52.694;6.214;2022-10-31T08:46:04;46.80;;;35.33;;
57389;SDS011;43217;52.694;6.214;2022-10-31T08:48:31;44.08;;;35.33;;
57389;SDS011;43217;52.694;6.214;2022-10-31T08:50:57;47.42;;;35.55;;
57389;SDS011;43217;52.694;6.214;2022-10-31T08:53:24;43.05;;;33.92;;
57389;SDS011;43217;52.694;6.214;2022-10-31T08:55:51;46.38;;;36.88;;
57389;SDS011;43217;52.694;6.214;2022-10-31T08:58:20;52.95;;;38.85;;
57389;SDS011;43217;52.694;6.214;2022-10-31T09:00:46;48.42;;;36.63;;
57389;SDS011;43217;52.694;6.214;2022-10-31T09:03:23;46.85;;;37.28;;
57389;SDS011;43217;52.694;6.214;2022-10-31T09:05:50;52.00;;;38.25;;
57389;SDS011;43217;52.694;6.214;2022-10-31T09:08:20;51.13;;;37.90;;
57389;SDS011;43217;52.694;6.214;2022-10-31T09:10:46;50.97;;;36.63;;
57389;SDS011;43217;52.694;6.214;2022-10-31T09:13:14;53.10;;;38.75;;
57389;SDS011;43217;52.694;6.214;2022-10-31T09:15:41;45.80;;;34.65;;
57389;SDS011;43217;52.694;6.214;2022-10-31T09:18:18;42.47;;;34.53;;
57389;SDS011;43217;52.694;6.214;2022-10-31T09:20:45;43.13;;;32.67;;
57389;SDS011;43217;52.694;6.214;2022-10-31T09:23:20;46.45;;;34.13;;
57389;SDS011;43217;52.694;6.214;2022-10-31T09:25:47;41.00;;;32.53;;
57389;SDS011;43217;52.694;6.214;2022-10-31T09:28:14;42.40;;;33.33;;
57389;SDS011;43217;52.694;6.214;2022-10-31T09:30:42;43.88;;;33.35;;
57389;SDS011;43217;52.694;6.214;2022-10-31T09:33:11;45.83;;;33.40;;
57389;SDS011;43217;52.694;6.214;2022-10-31T09:35:38;41.15;;;33.97;;
57389;SDS011;43217;52.694;6.214;2022-10-31T09:38:11;42.50;;;32.33;;
57389;SDS011;43217;52.694;6.214;2022-10-31T09:43:14;41.22;;;31.98;;
57389;SDS011;43217;52.694;6.214;2022-10-31T09:45:43;42.42;;;31.23;;
57389;SDS011;43217;52.694;6.214;2022-10-31T09:48:30;35.60;;;28.60;;
57389;SDS011;43217;52.694;6.214;2022-10-31T09:51:07;34.03;;;29.25;;
57389;SDS011;43217;52.694;6.214;2022-10-31T09:56:20;37.22;;;29.13;;
57389;SDS011;43217;52.694;6.214;2022-10-31T09:58:52;38.70;;;28.85;;
57389;SDS011;43217;52.694;6.214;2022-10-31T10:01:31;31.23;;;27.83;;
57389;SDS011;43217;52.694;6.214;2022-10-31T10:04:15;32.20;;;26.38;;
57389;SDS011;43217;52.694;6.214;2022-10-31T10:06:54;30.75;;;26.33;;
57389;SDS011;43217;52.694;6.214;2022-10-31T10:09:22;32.53;;;27.05;;
57389;SDS011;43217;52.694;6.214;2022-10-31T10:14:53;28.92;;;25.67;;
57389;SDS011;43217;52.694;6.214;2022-10-31T10:25:30;27.48;;;23.60;;
57389;SDS011;43217;52.694;6.214;2022-10-31T10:31:32;26.35;;;22.50;;
57389;SDS011;43217;52.694;6.214;2022-10-31T10:33:42;24.42;;;21.80;;
57389;SDS011;43217;52.694;6.214;2022-10-31T10:36:40;27.05;;;22.10;;
57389;SDS011;43217;52.694;6.214;2022-10-31T10:41:47;23.17;;;19.85;;
57389;SDS011;43217;52.694;6.214;2022-10-31T10:44:33;25.88;;;19.08;;
57389;SDS011;43217;52.694;6.214;2022-10-31T10:47:17;21.20;;;18.33;;
57389;SDS011;43217;52.694;6.214;2022-10-31T10:50:06;23.70;;;18.27;;
57389;SDS011;43217;52.694;6.214;2022-10-31T10:58:13;18.58;;;15.02;;
57389;SDS011;43217;52.694;6.214;2022-10-31T11:00:43;15.77;;;14.13;;
57389;SDS011;43217;52.694;6.214;2022-10-31T11:03:15;17.05;;;13.65;;
57389;SDS011;43217;52.694;6.214;2022-10-31T11:05:55;15.35;;;13.48;;
57389;SDS011;43217;52.694;6.214;2022-10-31T11:08:27;15.77;;;13.52;;
57389;SDS011;43217;52.694;6.214;2022-10-31T11:11:01;17.17;;;13.90;;
57389;SDS011;43217;52.694;6.214;2022-10-31T11:13:48;20.85;;;15.18;;
57389;SDS011;43217;52.694;6.214;2022-10-31T11:18:51;16.23;;;13.95;;
57389;SDS011;43217;52.694;6.214;2022-10-31T11:21:21;17.77;;;15.13;;
57389;SDS011;43217;52.694;6.214;2022-10-31T11:24:01;16.42;;;14.68;;
57389;SDS011;43217;52.694;6.214;2022-10-31T11:26:39;18.38;;;14.63;;
57389;SDS011;43217;52.694;6.214;2022-10-31T11:29:25;16.88;;;13.63;;
57389;SDS011;43217;52.694;6.214;2022-10-31T11:31:51;18.60;;;14.60;;
57389;SDS011;43217;52.694;6.214;2022-10-31T11:34:25;17.17;;;14.50;;
57389;SDS011;43217;52.694;6.214;2022-10-31T11:37:08;17.90;;;14.55;;
57389;SDS011;43217;52.694;6.214;2022-10-31T11:42:06;17.98;;;14.98;;
57389;SDS011;43217;52.694;6.214;2022-10-31T11:44:32;18.42;;;16.23;;
57389;SDS011;43217;52.694;6.214;2022-10-31T11:47:02;19.67;;;14.90;;
57389;SDS011;43217;52.694;6.214;2022-10-31T11:49:31;15.85;;;14.07;;
57389;SDS011;43217;52.694;6.214;2022-10-31T11:52:04;17.05;;;14.77;;
57389;SDS011;43217;52.694;6.214;2022-10-31T11:54:35;17.52;;;14.75;;
57389;SDS011;43217;52.694;6.214;2022-10-31T11:57:27;16.90;;;15.13;;
57389;SDS011;43217;52.694;6.214;2022-10-31T12:00:24;17.35;;;15.18;;
57389;SDS011;43217;52.694;6.214;2022-10-31T12:03:04;17.98;;;15.70;;
57389;SDS011;43217;52.694;6.214;2022-10-31T12:08:33;19.30;;;15.75;;
57389;SDS011;43217;52.694;6.214;2022-10-31T12:13:33;17.10;;;14.85;;
57389;SDS011;43217;52.694;6.214;2022-10-31T12:18:48;17.45;;;14.15;;
57389;SDS011;43217;52.694;6.214;2022-10-31T12:24:53;15.95;;;14.23;;
57389;SDS011;43217;52.694;6.214;2022-10-31T12:27:27;17.17;;;13.85;;
57389;SDS011;43217;52.694;6.214;2022-10-31T12:48:35;17.60;;;13.75;;
57389;SDS011;43217;52.694;6.214;2022-10-31T12:59:36;14.75;;;11.77;;
57389;SDS011;43217;52.694;6.214;2022-10-31T13:05:12;14.93;;;11.63;;
57389;SDS011;43217;52.694;6.214;2022-10-31T13:07:55;14.10;;;11.68;;
57389;SDS011;43217;52.694;6.214;2022-10-31T13:10:36;12.60;;;11.05;;
57389;SDS011;43217;52.694;6.214;2022-10-31T13:13:18;13.10;;;11.07;;
57389;SDS011;43217;52.694;6.214;2022-10-31T13:16:14;12.35;;;10.60;;
57389;SDS011;43217;52.694;6.214;2022-10-31T13:21:15;14.73;;;10.60;;
57389;SDS011;43217;52.694;6.214;2022-10-31T13:23:49;13.85;;;10.65;;
57389;SDS011;43217;52.694;6.214;2022-10-31T13:29:12;15.15;;;10.82;;
57389;SDS011;43217;52.694;6.214;2022-10-31T13:31:58;15.18;;;11.07;;
57389;SDS011;43217;52.694;6.214;2022-10-31T13:44:48;16.30;;;11.70;;
57389;SDS011;43217;52.694;6.214;2022-10-31T13:47:27;15.00;;;11.07;;
57389;SDS011;43217;52.694;6.214;2022-10-31T13:50:04;15.35;;;11.57;;
57389;SDS011;43217;52.694;6.214;2022-10-31T13:52:43;13.93;;;11.55;;
57389;SDS011;43217;52.694;6.214;2022-10-31T13:58:22;14.75;;;11.13;;
57389;SDS011;43217;52.694;6.214;2022-10-31T14:01:03;16.33;;;11.70;;
57389;SDS011;43217;52.694;6.214;2022-10-31T14:03:37;19.33;;;11.48;;
57389;SDS011;43217;52.694;6.214;2022-10-31T14:08:31;15.38;;;11.55;;
57389;SDS011;43217;52.694;6.214;2022-10-31T14:11:00;13.15;;;10.70;;
57389;SDS011;43217;52.694;6.214;2022-10-31T14:13:31;16.88;;;11.70;;
57389;SDS011;43217;52.694;6.214;2022-10-31T14:16:05;14.15;;;12.02;;
57389;SDS011;43217;52.694;6.214;2022-10-31T14:18:43;14.40;;;11.20;;
57389;SDS011;43217;52.694;6.214;2022-10-31T14:23:40;15.98;;;12.27;;
57389;SDS011;43217;52.694;6.214;2022-10-31T14:26:29;17.65;;;12.02;;
57389;SDS011;43217;52.694;6.214;2022-10-31T14:28:58;13.20;;;11.20;;
57389;SDS011;43217;52.694;6.214;2022-10-31T14:31:42;16.35;;;11.68;;
57389;SDS011;43217;52.694;6.214;2022-10-31T14:36:49;17.15;;;12.85;;
57389;SDS011;43217;52.694;6.214;2022-10-31T14:39:24;15.30;;;12.02;;
57389;SDS011;43217;52.694;6.214;2022-10-31T14:42:01;16.80;;;12.30;;
57389;SDS011;43217;52.694;6.214;2022-10-31T14:47:11;13.05;;;11.65;;
57389;SDS011;43217;52.694;6.214;2022-10-31T14:52:30;13.80;;;11.85;;
57389;SDS011;43217;52.694;6.214;2022-10-31T14:54:56;15.60;;;12.43;;
57389;SDS011;43217;52.694;6.214;2022-10-31T14:57:26;16.58;;;12.30;;
57389;SDS011;43217;52.694;6.214;2022-10-31T14:59:56;15.93;;;12.40;;
57389;SDS011;43217;52.694;6.214;2022-10-31T15:02:34;13.73;;;11.73;;
57389;SDS011;43217;52.694;6.214;2022-10-31T15:05:19;16.35;;;12.10;;
57389;SDS011;43217;52.694;6.214;2022-10-31T15:08:04;13.57;;;11.70;;
57389;SDS011;43217;52.694;6.214;2022-10-31T15:10:31;15.95;;;12.07;;
57389;SDS011;43217;52.694;6.214;2022-10-31T15:13:09;13.68;;;12.13;;
57389;SDS011;43217;52.694;6.214;2022-10-31T15:15:46;18.80;;;12.50;;
57389;SDS011;43217;52.694;6.214;2022-10-31T15:18:15;16.73;;;13.27;;
57389;SDS011;43217;52.694;6.214;2022-10-31T15:20:43;17.60;;;13.13;;
57389;SDS011;43217;52.694;6.214;2022-10-31T15:23:11;15.13;;;12.30;;
57389;SDS011;43217;52.694;6.214;2022-10-31T15:25:45;16.63;;;13.15;;
57389;SDS011;43217;52.694;6.214;2022-10-31T15:28:29;15.88;;;14.18;;
57389;SDS011;43217;52.694;6.214;2022-10-31T15:30:57;17.65;;;14.13;;
57389;SDS011;43217;52.694;6.214;2022-10-31T15:33:40;16.38;;;14.48;;
57389;SDS011;43217;52.694;6.214;2022-10-31T15:36:17;21.00;;;14.48;;
57389;SDS011;43217;52.694;6.214;2022-10-31T15:38:45;20.08;;;14.55;;
57389;SDS011;43217;52.694;6.214;2022-10-31T15:44:12;18.33;;;14.23;;
57389;SDS011;43217;52.694;6.214;2022-10-31T15:47:00;17.33;;;13.52;;
57389;SDS011;43217;52.694;6.214;2022-10-31T15:49:35;17.45;;;13.40;;
57389;SDS011;43217;52.694;6.214;2022-10-31T15:52:04;17.25;;;13.65;;
57389;SDS011;43217;52.694;6.214;2022-10-31T15:54:46;17.00;;;13.50;;
57389;SDS011;43217;52.694;6.214;2022-10-31T15:57:15;18.15;;;13.27;;
57389;SDS011;43217;52.694;6.214;2022-10-31T15:59:50;19.30;;;14.18;;
57389;SDS011;43217;52.694;6.214;2022-10-31T16:02:18;15.30;;;13.50;;
57389;SDS011;43217;52.694;6.214;2022-10-31T16:04:53;14.65;;;12.63;;
57389;SDS011;43217;52.694;6.214;2022-10-31T16:07:21;17.58;;;13.27;;
57389;SDS011;43217;52.694;6.214;2022-10-31T16:09:51;18.50;;;13.93;;
57389;SDS011;43217;52.694;6.214;2022-10-31T16:12:25;15.35;;;12.55;;
57389;SDS011;43217;52.694;6.214;2022-10-31T16:15:02;15.13;;;13.48;;
57389;SDS011;43217;52.694;6.214;2022-10-31T16:19:57;15.85;;;13.60;;
57389;SDS011;43217;52.694;6.214;2022-10-31T16:22:29;19.05;;;13.35;;
57389;SDS011;43217;52.694;6.214;2022-10-31T16:25:03;17.42;;;12.40;;
57389;SDS011;43217;52.694;6.214;2022-10-31T16:27:35;16.05;;;13.35;;
57389;SDS011;43217;52.694;6.214;2022-10-31T16:30:03;19.02;;;13.80;;
57389;SDS011;43217;52.694;6.214;2022-10-31T16:32:54;15.27;;;12.90;;
57389;SDS011;43217;52.694;6.214;2022-10-31T16:35:37;18.42;;;14.25;;
57389;SDS011;43217;52.694;6.214;2022-10-31T16:38:04;18.98;;;15.05;;
57389;SDS011;43217;52.694;6.214;2022-10-31T16:40:30;18.75;;;14.05;;
57389;SDS011;43217;52.694;6.214;2022-10-31T16:42:57;15.65;;;13.85;;
57389;SDS011;43217;52.694;6.214;2022-10-31T16:45:25;21.63;;;14.90;;
57389;SDS011;43217;52.694;6.214;2022-10-31T16:47:52;14.63;;;13.10;;
57389;SDS011;43217;52.694;6.214;2022-10-31T16:52:48;17.45;;;13.50;;
57389;SDS011;43217;52.694;6.214;2022-10-31T16:55:14;17.00;;;13.30;;
57389;SDS011;43217;52.694;6.214;2022-10-31T16:57:46;16.55;;;13.68;;
57389;SDS011;43217;52.694;6.214;2022-10-31T17:00:16;17.70;;;13.07;;
57389;SDS011;43217;52.694;6.214;2022-10-31T17:02:44;19.10;;;13.85;;
57389;SDS011;43217;52.694;6.214;2022-10-31T17:05:18;19.77;;;14.98;;
57389;SDS011;43217;52.694;6.214;2022-10-31T17:07:45;17.42;;;14.43;;
57389;SDS011;43217;52.694;6.214;2022-10-31T17:10:11;17.42;;;14.25;;
57389;SDS011;43217;52.694;6.214;2022-10-31T17:12:39;17.83;;;15.15;;
57389;SDS011;43217;52.694;6.214;2022-10-31T17:15:18;18.55;;;13.73;;
57389;SDS011;43217;52.694;6.214;2022-10-31T17:17:48;19.33;;;16.20;;